Time;durP1;ratioP1;P1;durP2;ratioP2;P2;SDS_P1;SDS_P2;PMS_P1;PMS_P2;Temp;Humidity;BMP_temperature;BMP_pressure;BME280_temperature;BME280_humidity;BME280_pressure;Samples;Min_cycle;Max_cycle;Signal;HPM_P1;HPM_P2
2023/07/13 00:01:58;;;;;;;3.25;1.27;;;;;;;19.86;56.86;99703.72;12198070;19;20017;-79
2023/07/13 00:06:00;;;;;;;7.63;1.40;;;;;;;19.82;56.98;99703.53;12222560;19;20014;-81
2023/07/13 00:10:03;;;;;;;3.30;1.10;;;;;;;19.84;57.92;99704.03;12216541;19;20074;-78
2023/07/13 00:14:05;;;;;;;4.35;1.40;;;;;;;19.85;57.60;99708.50;12195752;19;20035;-80
2023/07/13 00:18:07;;;;;;;5.50;1.70;;;;;;;19.82;57.38;99705.50;12219302;19;20017;-80
2023/07/13 00:22:09;;;;;;;3.20;1.27;;;;;;;19.78;57.73;99705.28;12217246;19;20002;-79
2023/07/13 00:26:12;;;;;;;3.45;1.27;;;;;;;19.73;57.78;99706.22;12198828;19;19999;-79
2023/07/13 00:30:14;;;;;;;2.80;1.20;;;;;;;19.72;57.86;99706.53;12216926;19;20517;-80
2023/07/13 00:34:16;;;;;;;4.20;1.35;;;;;;;19.68;58.05;99708.31;12217418;19;20598;-80
2023/07/13 00:38:18;;;;;;;4.20;1.08;;;;;;;19.56;58.00;99715.22;12194763;19;20441;-80
2023/07/13 00:42:22;;;;;;;3.60;1.50;;;;;;;19.41;59.77;99707.16;12217003;19;20034;-80
2023/07/13 00:46:29;;;;;;;4.22;1.52;;;;;;;19.28;59.79;99713.59;12198663;19;20022;-79
2023/07/13 00:50:31;;;;;;;4.75;1.40;;;;;;;19.10;59.68;99712.56;12215509;19;20082;-80
2023/07/13 00:54:41;;;;;;;5.47;1.42;;;;;;;18.93;60.25;99718.72;12215882;19;20019;-79
2023/07/13 00:58:43;;;;;;;3.35;1.08;;;;;;;18.78;60.95;99710.63;12194589;19;20520;-79
2023/07/13 01:02:46;;;;;;;3.22;1.55;;;;;;;18.66;63.18;99709.13;12217700;19;20010;-80
2023/07/13 01:06:48;;;;;;;5.40;1.42;;;;;;;18.49;63.17;99714.44;12212843;19;20014;-79
2023/07/13 01:10:52;;;;;;;2.30;1.30;;;;;;;18.37;63.61;99714.09;12192706;19;20114;-80
2023/07/13 01:15:00;;;;;;;7.22;1.65;;;;;;;18.25;64.58;99719.31;12214781;19;20018;-79
2023/07/13 01:19:13;;;;;;;3.08;1.52;;;;;;;18.09;65.64;99715.94;12214885;19;20015;-80
2023/07/13 01:23:15;;;;;;;3.17;1.50;;;;;;;17.98;66.15;99720.84;12184651;19;20021;-80
2023/07/13 01:27:21;;;;;;;4.88;1.77;;;;;;;17.90;67.00;99713.13;12209501;19;20023;-79
2023/07/13 01:31:23;;;;;;;4.93;1.60;;;;;;;17.79;67.48;99706.91;12191345;19;20563;-79
2023/07/13 01:35:26;;;;;;;6.07;1.80;;;;;;;17.69;68.39;99707.00;12215702;19;20087;-78
2023/07/13 01:39:28;;;;;;;2.67;1.38;;;;;;;17.65;68.59;99717.09;12213492;19;20015;-79
2023/07/13 01:43:30;;;;;;;2.78;1.27;;;;;;;17.57;69.80;99721.34;12191441;19;20006;-79
2023/07/13 01:47:33;;;;;;;3.42;1.52;;;;;;;17.48;70.83;99723.97;12218651;19;20476;-80
2023/07/13 01:51:35;;;;;;;3.85;1.40;;;;;;;17.39;71.13;99724.94;12215134;19;20562;-81
2023/07/13 01:55:38;;;;;;;5.47;1.70;;;;;;;17.30;71.70;99721.97;12194440;19;20569;-80
2023/07/13 01:59:40;;;;;;;3.50;1.33;;;;;;;17.19;72.18;99739.91;12212249;19;20003;-80
2023/07/13 02:03:42;;;;;;;3.60;1.80;;;;;;;17.14;72.77;99740.00;12214263;19;20006;-80
2023/07/13 02:07:43;;;;;;;6.05;1.77;;;;;;;17.08;74.12;99737.25;12195433;19;20018;-79
2023/07/13 02:11:45;;;;;;;6.60;1.70;;;;;;;17.05;74.08;99742.59;12212655;19;20011;-79
2023/07/13 02:15:50;;;;;;;5.15;1.83;;;;;;;16.99;74.63;99743.78;12212677;19;20014;-79
2023/07/13 02:19:52;;;;;;;2.85;1.55;;;;;;;16.91;74.92;99747.19;12192326;19;20019;-80
2023/07/13 02:23:54;;;;;;;3.47;1.50;;;;;;;16.95;75.10;99759.38;12211277;19;20025;-79
2023/07/13 02:27:56;;;;;;;5.03;1.58;;;;;;;17.05;75.19;99754.56;12216670;19;20011;-80
2023/07/13 02:31:58;;;;;;;3.40;1.67;;;;;;;17.14;74.85;99767.84;12189789;19;20006;-79
2023/07/13 02:36:00;;;;;;;3.38;1.38;;;;;;;17.22;74.93;99770.81;12212669;19;20088;-80
2023/07/13 02:40:08;;;;;;;3.38;1.55;;;;;;;17.36;74.81;99761.72;12213330;19;20014;-81
2023/07/13 02:44:13;;;;;;;4.15;2.15;;;;;;;17.47;74.43;99766.06;12190527;19;20066;-80
2023/07/13 02:48:14;;;;;;;4.43;2.13;;;;;;;17.55;73.89;99762.63;12211981;19;20060;-80
2023/07/13 02:52:16;;;;;;;3.30;1.55;;;;;;;17.60;73.76;99768.13;12215211;19;20477;-79
2023/07/13 02:56:23;;;;;;;4.13;1.65;;;;;;;17.62;73.71;99768.66;12194378;19;20543;-79
2023/07/13 03:00:25;;;;;;;2.45;1.65;;;;;;;17.56;74.26;99767.06;12225340;19;20002;-81
2023/07/13 03:04:27;;;;;;;5.18;2.13;;;;;;;17.44;74.61;99775.03;12233015;19;20037;-81
2023/07/13 03:08:29;;;;;;;3.83;1.57;;;;;;;17.28;75.55;99768.78;12258085;19;20006;-81
2023/07/13 03:12:31;;;;;;;4.43;1.53;;;;;;;17.14;76.15;99763.09;12254430;19;20002;-80
2023/07/13 03:16:40;;;;;;;4.82;1.60;;;;;;;17.00;76.90;99764.91;12202413;19;20182;-80
2023/07/13 03:20:42;;;;;;;3.97;1.73;;;;;;;16.84;77.60;99767.84;12213820;19;20015;-82
2023/07/13 03:24:44;;;;;;;;;;;;;;;16.69;78.73;99772.69;12210650;19;20027;-80
2023/07/13 03:28:46;;;;;;;9.07;1.90;;;;;;;16.58;79.11;99769.16;12193808;19;19940;-80
2023/07/13 03:32:52;;;;;;;6.57;2.00;;;;;;;16.48;80.35;99775.63;12226720;19;20022;-81
2023/07/13 03:36:55;;;;;;;2.78;1.73;;;;;;;16.38;80.69;99778.47;12224650;19;20007;-80
2023/07/13 03:40:57;;;;;;;4.18;1.60;;;;;;;16.30;81.34;99782.72;12200204;19;20507;-80
2023/07/13 03:44:58;;;;;;;4.18;1.88;;;;;;;16.23;82.42;99787.75;12224021;19;20014;-80
2023/07/13 03:49:01;;;;;;;7.25;1.80;;;;;;;16.17;83.54;99780.56;12221348;19;20043;-83
2023/07/13 03:53:02;;;;;;;3.67;1.50;;;;;;;16.14;84.01;99778.34;12202150;19;20002;-82
2023/07/13 03:57:05;;;;;;;2.47;1.47;;;;;;;16.13;85.00;99783.09;12221206;19;20010;-81
2023/07/13 04:01:11;;;;;;;5.68;1.73;;;;;;;16.11;84.61;99787.28;12219504;19;20003;-82
2023/07/13 04:05:13;;;;;;;3.03;1.73;;;;;;;16.08;85.04;99785.88;12210639;19;20006;-82
2023/07/13 04:09:15;;;;;;;2.95;1.90;;;;;;;16.05;85.48;99786.47;12226340;19;20014;-79
2023/07/13 04:13:17;;;;;;;6.03;2.00;;;;;;;16.07;85.57;99788.97;12222449;19;20015;-80
2023/07/13 04:17:19;;;;;;;4.15;1.60;;;;;;;16.07;86.29;99783.41;12194116;19;20022;-80
2023/07/13 04:21:21;;;;;;;5.13;2.40;;;;;;;16.05;85.85;99797.59;12219303;19;20034;-84
2023/07/13 04:25:22;;;;;;;6.15;1.88;;;;;;;16.03;86.03;99793.41;12197115;19;20027;-82
2023/07/13 04:29:24;;;;;;;4.72;2.17;;;;;;;16.01;86.55;99792.91;12216853;19;20003;-82
2023/07/13 04:33:27;;;;;;;7.45;2.47;;;;;;;16.00;87.40;99803.16;12219104;19;21563;-82
2023/07/13 04:37:29;;;;;;;6.03;2.25;;;;;;;15.95;88.07;99809.59;12197639;19;20485;-83
2023/07/13 04:41:31;;;;;;;6.10;1.85;;;;;;;15.93;87.45;99824.88;12213359;19;20023;-81
2023/07/13 04:45:35;;;;;;;3.75;1.65;;;;;;;15.95;88.84;99817.94;12218564;19;20086;-83
2023/07/13 04:49:37;;;;;;;3.30;1.67;;;;;;;15.99;88.72;99826.53;12193101;19;20023;-82
2023/07/13 04:53:39;;;;;;;4.67;2.13;;;;;;;16.02;88.19;99831.50;12216494;19;20010;-80
2023/07/13 04:57:41;;;;;;;4.13;1.65;;;;;;;16.07;88.00;99834.28;12217300;19;20019;-83
2023/07/13 05:01:42;;;;;;;4.30;1.63;;;;;;;16.12;87.30;99830.63;12194117;19;20018;-80
2023/07/13 05:05:57;;;;;;;4.63;2.00;;;;;;;16.23;88.00;99826.66;12215152;19;20010;-79
2023/07/13 05:09:59;;;;;;;3.22;1.60;;;;;;;16.28;87.54;99837.78;12215543;19;20334;-80
2023/07/13 05:14:01;;;;;;;6.65;1.92;;;;;;;16.34;87.78;99830.22;12193984;19;20022;-78
2023/07/13 05:18:03;;;;;;;6.82;2.47;;;;;;;16.40;87.60;99834.63;12215902;19;20028;-78
2023/07/13 05:22:05;;;;;;;5.25;2.50;;;;;;;16.47;86.87;99840.69;12217130;19;20014;-82
2023/07/13 05:26:07;;;;;;;6.45;1.65;;;;;;;16.52;86.55;99832.34;12192675;19;20010;-79
2023/07/13 05:30:11;;;;;;;6.60;3.08;;;;;;;16.58;85.06;99838.69;12213451;19;20060;-79
2023/07/13 05:34:15;;;;;;;5.43;2.20;;;;;;;16.69;84.36;99842.25;12213224;19;20623;-78
2023/07/13 05:38:19;;;;;;;6.15;2.40;;;;;;;16.80;84.45;99841.88;12187098;19;20027;-79
2023/07/13 05:42:21;;;;;;;4.85;1.83;;;;;;;16.90;84.18;99841.00;12207541;19;20102;-80
2023/07/13 05:46:25;;;;;;;6.25;2.10;;;;;;;17.01;83.69;99841.72;12182891;19;20048;-78
2023/07/13 05:50:27;;;;;;;6.30;1.77;;;;;;;17.12;81.36;99848.03;12211831;19;20016;-78
2023/07/13 05:54:29;;;;;;;6.25;2.15;;;;;;;17.23;82.08;99850.44;12211547;19;20002;-78
2023/07/13 05:58:33;;;;;;;3.72;1.63;;;;;;;17.31;82.54;99858.16;12193072;19;20014;-78
2023/07/13 06:02:35;;;;;;;3.43;1.53;;;;;;;17.38;80.47;99843.88;12217819;19;20034;-82
2023/07/13 06:06:37;;;;;;;3.77;1.67;;;;;;;17.52;79.70;99846.81;12212633;19;20055;-79
2023/07/13 06:10:40;;;;;;;8.38;2.28;;;;;;;17.68;79.42;99855.81;12195237;19;19999;-79
2023/07/13 06:14:42;;;;;;;3.75;1.40;;;;;;;17.81;77.63;99860.69;12211723;19;20006;-80
2023/07/13 06:18:44;;;;;;;4.50;1.73;;;;;;;17.94;75.20;99873.13;12215125;19;20039;-81
2023/07/13 06:22:47;;;;;;;3.55;1.92;;;;;;;18.12;74.31;99875.09;12189747;19;20025;-79
2023/07/13 06:26:51;;;;;;;5.47;1.20;;;;;;;18.31;71.96;99866.75;12210695;19;20108;-79
2023/07/13 06:30:52;;;;;;;7.73;1.40;;;;;;;18.45;68.99;99880.81;12195230;19;20014;-79
2023/07/13 06:34:54;;;;;;;5.43;1.23;;;;;;;18.60;66.29;99877.78;12196808;19;20024;-81
2023/07/13 06:38:57;;;;;;;2.90;1.20;;;;;;;18.71;66.35;99889.66;12216040;19;20010;-79
2023/07/13 06:43:00;;;;;;;4.45;2.33;;;;;;;18.89;66.64;99886.03;12217392;19;20014;-79
2023/07/13 06:47:03;;;;;;;7.82;1.45;;;;;;;19.12;65.51;99894.59;12196732;19;20015;-80
2023/07/13 06:51:05;;;;;;;4.22;1.52;;;;;;;19.28;64.57;99897.97;12216187;19;20352;-79
2023/07/13 06:55:08;;;;;;;4.13;0.95;;;;;;;19.45;63.78;99895.41;12219988;19;20010;-79
2023/07/13 06:59:10;;;;;;;3.00;1.00;;;;;;;19.58;62.35;99889.03;12231894;19;20018;-81
2023/07/13 07:03:16;;;;;;;4.80;1.15;;;;;;;19.75;61.33;99896.00;12222434;19;20018;-80
2023/07/13 07:07:19;;;;;;;2.22;1.05;;;;;;;20.02;61.32;99890.47;12212461;19;20010;-79
2023/07/13 07:11:25;;;;;;;5.25;1.48;;;;;;;20.31;60.47;99894.88;12226280;19;20007;-80
2023/07/13 07:15:27;;;;;;;2.78;1.50;;;;;;;20.50;59.60;99900.34;12228887;19;20623;-81
2023/07/13 07:19:30;;;;;;;4.45;1.30;;;;;;;20.73;58.50;99906.84;12203687;19;20010;-80
2023/07/13 07:23:35;;;;;;;2.70;1.00;;;;;;;20.86;56.96;99906.00;12228148;19;20063;-81
2023/07/13 07:27:38;;;;;;;1.53;1.00;;;;;;;20.96;55.89;99904.09;12227578;19;20120;-81
2023/07/13 07:31:43;;;;;;;4.10;1.02;;;;;;;21.17;54.65;99908.88;12203583;19;20201;-80
2023/07/13 07:35:48;;;;;;;3.00;1.10;;;;;;;21.38;53.68;99909.22;12229777;19;20010;-80
2023/07/13 07:39:54;;;;;;;3.33;1.20;;;;;;;21.73;52.89;99911.41;12229274;19;20341;-80
2023/07/13 07:43:59;;;;;;;3.78;1.15;;;;;;;22.04;51.97;99914.19;12208924;19;20007;-80
2023/07/13 07:48:05;;;;;;;4.90;1.23;;;;;;;22.43;50.16;99913.38;12244446;19;20014;-80
2023/07/13 07:52:08;;;;;;;4.80;1.50;;;;;;;22.80;48.97;99921.50;12251643;19;20017;-79
2023/07/13 07:56:10;;;;;;;10.65;1.60;;;;;;;23.39;47.25;99910.63;12226233;19;20010;-79
2023/07/13 08:00:16;;;;;;;3.17;1.17;;;;;;;23.69;46.52;99905.09;12241155;19;20006;-81
2023/07/13 08:04:21;;;;;;;3.90;1.70;;;;;;;23.74;46.70;99904.94;12225309;19;20010;-79
2023/07/13 08:08:26;;;;;;;3.95;1.13;;;;;;;23.59;44.86;99904.28;12199628;19;20021;-81
2023/07/13 08:12:28;;;;;;;3.08;0.90;;;;;;;23.52;45.68;99906.78;12222656;19;20019;-81
2023/07/13 08:16:34;;;;;;;5.03;1.20;;;;;;;23.48;45.53;99897.38;12201522;19;20026;-80
2023/07/13 08:20:38;;;;;;;3.33;1.02;;;;;;;23.46;45.69;99910.91;12221655;19;20365;-81
2023/07/13 08:24:40;;;;;;;5.75;1.42;;;;;;;23.58;44.26;99908.25;12223350;19;20020;-82
2023/07/13 08:28:45;;;;;;;8.00;1.40;;;;;;;23.79;44.99;99913.19;12201447;19;20035;-80
2023/07/13 08:32:49;;;;;;;5.97;1.45;;;;;;;23.37;43.82;99910.94;12226962;19;20022;-81
2023/07/13 08:36:51;;;;;;;;;;;;;;;23.39;44.46;99913.44;12226471;19;20007;-81
2023/07/13 08:40:56;;;;;;;5.43;1.00;;;;;;;23.57;44.02;99902.97;12202850;19;19935;-80
2023/07/13 08:45:13;;;;;;;2.40;0.80;;;;;;;23.73;44.46;99897.66;12223983;19;20003;-81
2023/07/13 08:49:22;;;;;;;3.22;1.00;;;;;;;24.16;41.61;99902.28;12221831;19;20010;-80
2023/07/13 08:53:35;;;;;;;3.72;0.90;;;;;;;24.23;42.09;99894.94;12198985;19;20015;-80
2023/07/13 08:57:41;;;;;;;6.35;1.00;;;;;;;24.69;41.86;99892.38;12221672;19;20014;-81
2023/07/13 09:02:19;;;;;;;3.10;1.10;;;;;;;24.91;40.35;99886.41;12202259;19;20047;-81
2023/07/13 09:06:41;;;;;;;2.63;1.23;;;;;;;24.90;40.43;99890.41;12223312;19;20031;-80
2023/07/13 09:10:45;;;;;;;6.90;1.30;;;;;;;25.08;40.51;99887.44;12193806;19;20023;-83
2023/07/13 09:14:52;;;;;;;4.18;0.85;;;;;;;25.11;40.56;99898.84;12220401;19;20010;-80
2023/07/13 09:19:01;;;;;;;4.55;1.10;;;;;;;25.05;39.48;99888.13;12219568;19;20046;-80
2023/07/13 09:23:10;;;;;;;8.32;1.05;;;;;;;24.67;40.61;99889.91;12199925;19;20461;-82
2023/07/13 09:27:22;;;;;;;2.70;1.25;;;;;;;24.66;40.78;99887.41;12224700;19;20349;-82
2023/07/13 09:31:36;;;;;;;3.40;0.75;;;;;;;24.75;40.06;99883.38;12235543;19;20047;-81
2023/07/13 09:35:38;;;;;;;2.42;1.00;;;;;;;24.66;40.21;99884.59;12208810;19;20123;-82
2023/07/13 09:39:42;;;;;;;;;;;;;;;24.54;38.98;99891.00;12227392;19;20006;-81
2023/07/13 09:44:02;;;;;;;;;;;;;;;24.88;39.34;99889.91;12207724;19;19914;-81
2023/07/13 09:48:13;;;;;;;4.47;1.30;;;;;;;25.33;39.05;99894.84;12225981;19;19919;-81
2023/07/13 09:52:15;;;;;;;8.63;1.35;;;;;;;25.51;38.21;99883.38;12223584;19;20007;-82
2023/07/13 09:56:27;;;;;;;3.53;1.08;;;;;;;25.61;36.21;99897.88;12204017;19;20025;-81
2023/07/13 10:00:29;;;;;;;3.53;0.88;;;;;;;25.57;35.94;99898.91;12224890;19;20382;-80
2023/07/13 10:04:34;;;;;;;6.25;1.20;;;;;;;25.56;35.81;99883.16;12198035;19;20114;-81
2023/07/13 10:08:39;;;;;;;2.33;1.00;;;;;;;25.60;34.64;99899.03;12224913;19;20009;-82
2023/07/13 10:12:41;;;;;;;2.40;1.35;;;;;;;25.69;35.39;99899.75;12216812;19;20006;-81
2023/07/13 10:16:46;;;;;;;3.05;0.70;;;;;;;25.82;34.80;99897.84;12198041;19;20021;-83
2023/07/13 10:20:51;;;;;;;4.45;0.90;;;;;;;26.33;33.85;99906.00;12217255;19;20015;-79
2023/07/13 10:24:57;;;;;;;3.88;0.90;;;;;;;26.14;33.85;99893.25;12223393;19;20020;-79
2023/07/13 10:29:03;;;;;;;3.17;1.17;;;;;;;26.03;34.63;99886.44;12198265;19;20006;-80
2023/07/13 10:33:11;;;;;;;2.15;1.05;;;;;;;26.00;34.40;99895.63;12222027;19;20023;-81
2023/07/13 10:37:24;;;;;;;2.08;0.70;;;;;;;25.96;35.16;99882.56;12219860;19;20014;-81
2023/07/13 10:41:29;;;;;;;5.57;1.10;;;;;;;26.13;34.87;99893.63;12194251;19;20420;-80
2023/07/13 10:45:36;;;;;;;5.25;1.17;;;;;;;26.21;34.88;99887.03;12219557;19;20053;-80
2023/07/13 10:49:40;;;;;;;2.53;0.93;;;;;;;26.25;34.67;99884.34;12195710;19;21445;-77
2023/07/13 10:53:43;;;;;;;5.75;1.17;;;;;;;26.62;33.83;99887.94;12219522;19;20010;-79
2023/07/13 10:57:45;;;;;;;2.40;0.95;;;;;;;27.21;33.53;99890.16;12218098;19;20015;-80
2023/07/13 11:01:53;;;;;;;5.97;1.20;;;;;;;27.17;32.73;99891.25;12198754;19;20157;-79
2023/07/13 11:06:09;;;;;;;3.13;0.90;;;;;;;26.86;33.30;99880.59;12267106;19;20015;-82
2023/07/13 11:10:56;;;;;;;4.07;1.38;;;;;;;26.50;33.40;99885.16;12268587;19;20007;-81
2023/07/13 11:14:58;;;;;;;2.28;0.95;;;;;;;26.13;33.54;99887.97;12160565;19;2004390;-81
2023/07/13 11:19:03;;;;;;;2.17;0.90;;;;;;;25.90;33.79;99884.78;12211361;19;20022;-80
2023/07/13 11:23:17;;;;;;;2.47;0.93;;;;;;;25.99;34.00;99885.50;12190384;19;20362;-79
2023/07/13 11:27:31;;;;;;;2.85;1.30;;;;;;;26.36;33.44;99874.22;12210654;19;20553;-79
2023/07/13 11:31:35;;;;;;;1.77;0.70;;;;;;;26.36;33.99;99869.38;12186045;19;20007;-80
2023/07/13 11:35:43;;;;;;;3.88;0.90;;;;;;;26.57;33.54;99879.75;12208860;19;20410;-81
2023/07/13 11:39:48;;;;;;;4.97;1.20;;;;;;;26.30;33.78;99870.78;12208584;19;20011;-80
2023/07/13 11:44:02;;;;;;;2.67;1.08;;;;;;;26.24;34.48;99877.03;12187946;19;20086;-81
2023/07/13 11:48:04;;;;;;;2.05;0.95;;;;;;;26.29;33.76;99866.31;12209192;19;20504;-81
2023/07/13 11:52:15;;;;;;;3.25;1.08;;;;;;;26.49;32.94;99867.38;12217135;19;20010;-80
2023/07/13 11:56:17;;;;;;;3.97;0.90;;;;;;;26.57;33.12;99859.97;12198735;19;20011;-80
2023/07/13 12:00:26;;;;;;;5.47;0.90;;;;;;;27.12;32.02;99866.03;12220177;19;20497;-81
2023/07/13 12:04:32;;;;;;;3.33;0.95;;;;;;;27.35;31.67;99869.13;12211783;19;20021;-80
2023/07/13 12:08:40;;;;;;;4.28;1.02;;;;;;;26.63;32.16;99872.66;12219285;19;20081;-78
2023/07/13 12:12:48;;;;;;;1.65;0.90;;;;;;;26.20;32.86;99871.25;12223400;19;20007;-78
2023/07/13 12:16:51;;;;;;;2.30;0.90;;;;;;;26.12;32.64;99872.22;12206464;19;19999;-81
2023/07/13 12:20:57;;;;;;;5.18;1.10;;;;;;;26.69;32.22;99864.75;12224794;19;20039;-80
2023/07/13 12:24:59;;;;;;;5.30;1.10;;;;;;;27.70;30.67;99864.44;12229756;19;20018;-82
2023/07/13 12:29:06;;;;;;;4.28;1.17;;;;;;;28.63;29.46;99868.78;12203627;19;20011;-80
2023/07/13 12:33:12;;;;;;;4.18;1.40;;;;;;;28.83;28.96;99861.13;12226249;19;20011;-80
2023/07/13 12:37:14;;;;;;;4.57;1.00;;;;;;;29.29;29.02;99870.63;12226942;19;20490;-81
2023/07/13 12:41:17;;;;;;;5.30;1.65;;;;;;;29.19;27.94;99864.75;12199824;19;20023;-81
2023/07/13 12:45:21;;;;;;;1.70;1.00;;;;;;;28.81;29.06;99872.03;12223993;19;20003;-80
2023/07/13 12:49:28;;;;;;;2.13;0.80;;;;;;;28.41;29.27;99878.81;12224950;19;20472;-80
2023/07/13 12:53:40;;;;;;;5.07;1.23;;;;;;;27.65;29.73;99872.38;12196458;19;20046;-82
2023/07/13 12:57:54;;;;;;;1.77;0.90;;;;;;;27.12;30.85;99894.31;12223974;19;20110;-80
2023/07/13 13:01:56;;;;;;;7.22;2.33;;;;;;;26.77;31.72;99887.25;12200555;19;20021;-81
2023/07/13 13:06:04;;;;;;;2.75;1.50;;;;;;;26.98;31.30;99889.88;12229416;19;20049;-81
2023/07/13 13:10:13;;;;;;;4.38;1.20;;;;;;;27.36;31.24;99899.06;12225356;19;20021;-80
2023/07/13 13:14:15;;;;;;;2.30;1.10;;;;;;;27.41;31.02;99890.31;12196397;19;20011;-79
2023/07/13 13:18:19;;;;;;;2.58;1.17;;;;;;;27.43;31.17;99896.47;12221704;19;20010;-82
2023/07/13 13:22:21;;;;;;;3.47;1.23;;;;;;;27.39;30.58;99898.34;12226615;19;20011;-81
2023/07/13 13:26:23;;;;;;;3.15;1.13;;;;;;;27.42;31.07;99906.94;12207569;19;20006;-82
2023/07/13 13:30:25;;;;;;;6.57;1.17;;;;;;;27.75;31.26;99905.00;12223686;19;20006;-81
2023/07/13 13:34:27;;;;;;;2.55;1.25;;;;;;;27.69;30.75;99898.75;12225291;19;20011;-79
2023/07/13 13:38:30;;;;;;;6.97;1.20;;;;;;;27.47;31.28;99894.53;12198728;19;20512;-79
2023/07/13 13:42:32;;;;;;;;;;;;;;;27.27;31.05;99899.22;12219866;19;20077;-80
2023/07/13 13:46:35;;;;;;;;;;;;;;;27.45;30.99;99911.88;12202613;19;19918;-81
2023/07/13 13:50:37;;;;;;;;;;;;;;;27.40;30.92;99905.66;12221667;19;19923;-82
2023/07/13 13:54:38;;;;;;;;;;;;;;;27.18;31.50;99910.69;12221618;19;19906;-82
2023/07/13 13:58:42;;;;;;;;;;;;;;;27.10;31.69;99914.47;12201796;19;19948;-83
2023/07/13 14:02:50;;;;;;;;;;;;;;;27.24;31.57;99905.59;12222533;19;19927;-82
2023/07/13 14:06:52;;;;;;;;;;;;;;;27.76;30.83;99910.31;12220113;19;19914;-80
2023/07/13 14:10:56;;;;;;;;;;;;;;;28.12;30.02;99912.09;12197041;19;20274;-80
2023/07/13 14:14:58;;;;;;;;;;;;;;;28.05;30.30;99909.06;12218977;19;19911;-81
2023/07/13 14:19:00;;;;;;;;;;;;;;;27.75;29.98;99905.00;12201526;19;19917;-81
2023/07/13 14:23:03;;;;;;;;;;;;;;;27.16;30.89;99906.59;12199687;19;20238;-80
2023/07/13 14:27:05;;;;;;;;;;;;;;;26.65;31.01;99909.03;12219416;19;20346;-81
2023/07/13 14:31:07;;;;;;;;;;;;;;;26.69;31.41;99916.47;12218529;19;19983;-81
2023/07/13 14:35:12;;;;;;;;;;;;;;;27.24;31.37;99922.56;12194344;19;19911;-82
2023/07/13 14:39:14;;;;;;;;;;;;;;;27.43;30.95;99914.25;12218760;19;19907;-81
2023/07/13 14:43:17;;;;;;;;;;;;;;;27.62;30.91;99916.38;12223685;19;19915;-83
2023/07/13 14:47:20;;;;;;;;;;;;;;;27.59;30.27;99911.44;12206182;19;19911;-81
2023/07/13 14:51:21;;;;;;;;;;;;;;;27.64;30.81;99910.38;12217451;19;20317;-80
2023/07/13 14:55:26;;;;;;;;;;;;;;;27.74;31.11;99904.16;12217228;19;20444;-81
2023/07/13 14:59:28;;;;;;;;;;;;;;;27.63;31.22;99898.22;12198489;19;19922;-80
2023/07/13 15:03:30;;;;;;;;;;;;;;;27.87;31.07;99896.44;12218266;19;19925;-80
2023/07/13 15:07:33;;;;;;;;;;;;;;;28.68;29.51;99902.53;12220786;19;19938;-82
2023/07/13 15:11:35;;;;;;;;;;;;;;;28.88;28.41;99900.53;12196409;19;19914;-82
2023/07/13 15:15:37;;;;;;;;;;;;;;;29.39;28.04;99896.75;12216017;19;19910;-83
2023/07/13 15:19:39;;;;;;;;;;;;;;;29.28;28.36;99886.03;12217016;19;19911;-81
2023/07/13 15:23:41;;;;;;;;;;;;;;;28.59;29.05;99894.22;12194702;19;19922;-80
2023/07/13 15:27:42;;;;;;;;;;;;;;;27.59;29.79;99888.81;12227711;19;19910;-79
2023/07/13 15:31:45;;;;;;;;;;;;;;;27.07;30.75;99903.88;12227960;19;20345;-80
2023/07/13 15:35:48;;;;;;;;;;;;;;;26.74;31.55;99901.25;12205909;19;19910;-80
2023/07/13 15:39:50;;;;;;;;;;;;;;;26.80;31.06;99897.84;12223729;19;19906;-80
2023/07/13 15:43:59;;;;;;;;;;;;;;;26.67;31.79;99893.38;12225492;19;19915;-79
2023/07/13 15:48:01;;;;;;;;;;;;;;;26.80;31.67;99902.63;12197512;19;20766;-78
2023/07/13 15:52:05;;;;;;;;;;;;;;;26.70;31.97;99901.13;12220174;19;19934;-79
2023/07/13 15:56:19;;;;;;;;;;;;;;;26.51;31.85;99903.78;12225687;19;19914;-81
2023/07/13 16:00:23;;;;;;;;;;;;;;;26.58;31.84;99892.69;12203906;19;19924;-78
2023/07/13 16:04:26;;;;;;;;;;;;;;;26.45;32.47;99891.03;12224342;19;19963;-79
2023/07/13 16:08:31;;;;;;;;;;;;;;;26.68;32.33;99902.66;12204538;19;19918;-80
2023/07/13 16:12:33;;;;;;;;;;;;;;;26.93;31.66;99895.78;12222986;19;19910;-81
2023/07/13 16:16:35;;;;;;;;;;;;;;;26.74;31.97;99885.13;12223750;19;20294;-80
2023/07/13 16:20:37;;;;;;;;;;;;;;;26.57;32.26;99888.22;12203959;19;19993;-82
2023/07/13 16:24:44;;;;;;;;;;;;;;;26.48;32.08;99895.97;12222178;19;19943;-78
2023/07/13 16:28:47;;;;;;;;;;;;;;;26.59;32.11;99883.00;12222872;19;19942;-80
2023/07/13 16:32:52;;;;;;;;;;;;;;;26.49;31.66;99891.97;12204234;19;19975;-79
2023/07/13 16:36:54;;;;;;;;;;;;;;;26.24;32.11;99891.16;12225281;19;20016;-79
2023/07/13 16:40:56;;;;;;;;;;;;;;;26.17;32.06;99886.09;12221204;19;20275;-80
2023/07/13 16:44:58;;;;;;;;;;;;;;;26.25;32.26;99887.97;12201301;19;19914;-80
2023/07/13 16:49:01;;;;;;;;;;;;;;;26.36;32.33;99891.16;12216078;19;20246;-79
2023/07/13 16:53:08;;;;;;;;;;;;;;;26.31;32.09;99897.03;12216024;19;20578;-80
2023/07/13 16:57:19;;;;;;;;;;;;;;;26.14;32.30;99900.91;12196189;19;19935;-79
2023/07/13 17:01:22;;;;;;;;;;;;;;;25.96;32.21;99894.66;12217367;19;19927;-80
2023/07/13 17:05:25;;;;;;;;;;;;;;;25.88;32.51;99893.63;12194776;19;19915;-80
2023/07/13 17:09:27;;;;;;;;;;;;;;;25.87;32.43;99889.13;12216718;19;19922;-80
2023/07/13 17:13:29;;;;;;;;;;;;;;;25.78;32.62;99893.19;12224857;19;19914;-81
2023/07/13 17:17:36;;;;;;;;;;;;;;;25.75;32.79;99889.06;12206357;19;21655;-82
2023/07/13 17:21:38;;;;;;;;;;;;;;;25.65;33.37;99887.53;12239475;19;19921;-81
2023/07/13 17:25:40;;;;;;;;;;;;;;;25.61;33.34;99895.06;12241199;19;19970;-80
2023/07/13 17:29:42;;;;;;;;;;;;;;;25.60;33.43;99898.22;12220290;19;20256;-82
2023/07/13 17:33:45;;;;;;;;;;;;;;;25.46;33.38;99892.88;12211462;19;19911;-79
2023/07/13 17:37:48;;;;;;;;;;;;;;;25.45;33.17;99889.25;12194330;19;19931;-80
2023/07/13 17:41:50;;;;;;;;;;;;;;;25.34;33.14;99898.47;12213569;19;19923;-79
2023/07/13 17:45:54;;;;;;;;;;;;;;;25.25;33.34;99892.91;12220066;19;19926;-79
2023/07/13 17:49:56;;;;;;;;;;;;;;;25.27;33.62;99898.22;12196800;19;19910;-79
2023/07/13 17:53:58;;;;;;;;;;;;;;;25.27;33.31;99893.41;12222921;19;19910;-79
2023/07/13 17:58:01;;;;;;;;;;;;;;;25.23;33.68;99889.66;12221204;19;19919;-79
2023/07/13 18:02:03;;;;;;;;;;;;;;;25.21;33.60;99889.16;12198148;19;19910;-79
2023/07/13 18:06:05;;;;;;;;;;;;;;;25.06;33.62;99887.78;12216511;19;19911;-79
2023/07/13 18:10:16;;;;;;;;;;;;;;;25.08;33.64;99893.06;12215380;19;19910;-79
2023/07/13 18:14:18;;;;;;;;;;;;;;;25.10;33.79;99902.00;12193434;19;19910;-79
2023/07/13 18:18:21;;;;;;;;;;;;;;;25.09;33.93;99897.53;12209977;19;19927;-79
2023/07/13 18:22:22;;;;;;;;;;;;;;;24.90;34.26;99895.22;12193961;19;19925;-79
2023/07/13 18:26:25;;;;;;;;;;;;;;;24.64;34.45;99899.03;12214047;19;19911;-80
2023/07/13 18:30:27;;;;;;;;;;;;;;;24.34;34.09;99912.28;12219965;19;19911;-80
2023/07/13 18:34:32;;;;;;;;;;;;;;;24.13;34.63;99902.97;12199501;19;19974;-79
2023/07/13 18:38:36;;;;;;;;;;;;;;;23.95;34.96;99907.84;12216404;19;19919;-78
2023/07/13 18:42:38;;;;;;;;;;;;;;;23.80;35.11;99904.41;12234268;19;19910;-79
2023/07/13 18:46:40;;;;;;;;;;;;;;;23.69;35.16;99908.72;12224165;19;19974;-80
2023/07/13 18:50:43;;;;;;;;;;;;;;;23.52;35.33;99901.16;12219431;19;20335;-79
2023/07/13 18:54:45;;;;;;;;;;;;;;;23.36;35.53;99909.28;12217223;19;20259;-79
2023/07/13 18:58:47;;;;;;;;;;;;;;;23.19;35.57;99912.94;12195870;19;20288;-79
2023/07/13 19:02:49;;;;;;;;;;;;;;;23.02;35.96;99918.56;12230674;19;19911;-79
2023/07/13 19:06:51;;;;;;;;;;;;;;;22.87;36.44;99913.41;12231924;19;20431;-79
2023/07/13 19:10:53;;;;;;;;;;;;;;;22.66;36.88;99916.84;12206897;19;19918;-79
2023/07/13 19:15:32;;;;;;;;;;;;;;;22.42;38.21;99922.91;12248293;19;19945;-80
2023/07/13 19:19:35;;;;;;;;;;;;;;;22.11;38.71;99925.78;12249775;19;19918;-79
2023/07/13 19:23:44;;;;;;;;;;;;;;;21.85;39.78;99929.28;12278998;19;19941;-80
2023/07/13 19:27:48;;;;;;;;;;;;;;;21.61;40.39;99928.81;12254085;19;19911;-80
2023/07/13 19:31:50;;;;;;;;;;;;;;;21.41;40.80;99934.94;12200827;19;19939;-79